Airfield :
LOGIN :

Register | Disclaimer

   EN    FR    IT 

 










Legend :    VFR   Marginal VFR   IFR   Intensive IFR   Very Intensive IFR
Visi :
Ceiling :
>= 8 km
>= 3000ft
5 to 8 km
1000 to 3000 ft
1500m to 5 km
500 to 1000 ft
800 to 1500m
200 to 500 ft
< 800m
< 200 ft
Symbols :   Thunderstorms  Fog  Heavy snow  Heavy precipitations  Wind > 20 kt
SIGMETs :     Misc.  Thunderstorms  Icing  Turbulence  Mountain Waves  Volcanic Ashes







- Airport Elevation : 659 ft
- IATA code : LYN
- Download approach charts


LFLY - Lyon Bron

CURRENT METAR :
  • 270000Z AUTO 01009KT CAVOK 06/M02 Q1027 NOSIG

EXPIRED METARs :
  • 262330Z AUTO 01006KT 330V050 CAVOK 07/M02 Q1027 NOSIG
  • 262300Z AUTO 35010KT CAVOK 08/M02 Q1027 NOSIG
  • 262230Z AUTO 35010KT 320V030 CAVOK 08/M02 Q1027 NOSIG
  • 262200Z AUTO 35007KT 330V040 CAVOK 08/M01 Q1027 NOSIG
  • 262130Z AUTO 36009KT 330V030 CAVOK 08/M01 Q1027 NOSIG

TAF TAF LFLY
Valid from the 27 at 00:00 until the 28 at 00:00 UTC


262300Z 2700/2724 36010KT CAVOK
TEMPO 2713/2718 36015G25KT
ATIS : +33 4 72 15 87 96
No reported NOTAMs for that airfield.
1 SIGMET reported for the Marseille FIR (LFMM) :
 
Severe turbulence
LFMM SIGMET 21 VALID 262000/270000 LFPW
LFMM MARSEILLE FIR/UIR SEV TURB FCST WI N4115 E00930 - N4115 E00900 - N4300 E00830 - N4315 E00930 - N4115 E00930 SFC/FL090 STNR WKN=



MET'MAP, your aeronautical weather chart ! - Copyright ORBIFLY December 2007 - Disclaimer

ORBIFLY MET'MAP TEAM :

Programming & Development : Alexandra Zaïnal
Concept & Development : Baudouin d'Aumeries
Co-Development & Prog : Marc-Olivier Méhu
Technical & hardware support : Manuel Goepfert

Contact : metmap@orbifly.com




SOURCES & CREDITS :

   NOAA